sensor_id;sensor_type;location;lat;lon;timestamp;P1;durP1;ratioP1;P2;durP2;ratioP2
595;SDS011;19946;49.306;11.350;2022-09-09T00:00:15;7.83;;;7.73;;
595;SDS011;19946;49.306;11.350;2022-09-09T00:03:18;11.80;;;11.60;;
595;SDS011;19946;49.306;11.350;2022-09-09T00:06:27;9.63;;;9.43;;
595;SDS011;19946;49.306;11.350;2022-09-09T00:09:39;10.00;;;9.80;;
595;SDS011;19946;49.306;11.350;2022-09-09T00:12:51;9.67;;;9.47;;
595;SDS011;19946;49.306;11.350;2022-09-09T00:16:03;9.27;;;9.17;;
595;SDS011;19946;49.306;11.350;2022-09-09T00:19:23;9.63;;;9.43;;
595;SDS011;19946;49.306;11.350;2022-09-09T00:22:29;9.10;;;9.00;;
595;SDS011;19946;49.306;11.350;2022-09-09T00:25:54;9.10;;;9.00;;
595;SDS011;19946;49.306;11.350;2022-09-09T00:32:19;8.70;;;8.60;;
595;SDS011;19946;49.306;11.350;2022-09-09T00:35:27;8.40;;;8.30;;
595;SDS011;19946;49.306;11.350;2022-09-09T00:39:04;8.50;;;8.40;;
595;SDS011;19946;49.306;11.350;2022-09-09T00:55:38;9.20;;;9.10;;
595;SDS011;19946;49.306;11.350;2022-09-09T00:58:48;9.27;;;9.17;;
595;SDS011;19946;49.306;11.350;2022-09-09T01:01:59;8.60;;;8.50;;
595;SDS011;19946;49.306;11.350;2022-09-09T01:05:10;7.90;;;7.80;;
595;SDS011;19946;49.306;11.350;2022-09-09T01:15:24;8.30;;;8.20;;
595;SDS011;19946;49.306;11.350;2022-09-09T01:18:25;8.83;;;8.73;;
595;SDS011;19946;49.306;11.350;2022-09-09T01:21:33;8.50;;;8.40;;
595;SDS011;19946;49.306;11.350;2022-09-09T01:24:53;7.50;;;7.40;;
595;SDS011;19946;49.306;11.350;2022-09-09T01:28:25;8.40;;;8.30;;
595;SDS011;19946;49.306;11.350;2022-09-09T01:31:36;8.30;;;8.20;;
595;SDS011;19946;49.306;11.350;2022-09-09T01:34:39;8.23;;;8.13;;
595;SDS011;19946;49.306;11.350;2022-09-09T01:37:41;8.30;;;8.20;;
595;SDS011;19946;49.306;11.350;2022-09-09T01:40:42;8.00;;;7.90;;
595;SDS011;19946;49.306;11.350;2022-09-09T01:43:42;8.20;;;8.10;;
595;SDS011;19946;49.306;11.350;2022-09-09T01:46:43;8.60;;;8.50;;
595;SDS011;19946;49.306;11.350;2022-09-09T01:49:50;8.00;;;7.90;;
595;SDS011;19946;49.306;11.350;2022-09-09T01:52:57;7.40;;;7.30;;
595;SDS011;19946;49.306;11.350;2022-09-09T01:56:07;7.40;;;7.30;;
595;SDS011;19946;49.306;11.350;2022-09-09T02:06:11;7.20;;;7.10;;
595;SDS011;19946;49.306;11.350;2022-09-09T02:09:24;7.73;;;7.63;;
595;SDS011;19946;49.306;11.350;2022-09-09T02:12:30;8.10;;;8.00;;
595;SDS011;19946;49.306;11.350;2022-09-09T02:15:34;8.77;;;8.67;;
595;SDS011;19946;49.306;11.350;2022-09-09T02:18:57;8.63;;;8.53;;
595;SDS011;19946;49.306;11.350;2022-09-09T02:22:13;7.73;;;7.63;;
595;SDS011;19946;49.306;11.350;2022-09-09T02:25:18;7.20;;;7.10;;
595;SDS011;19946;49.306;11.350;2022-09-09T02:28:23;7.07;;;6.97;;
595;SDS011;19946;49.306;11.350;2022-09-09T02:31:28;7.17;;;7.07;;
595;SDS011;19946;49.306;11.350;2022-09-09T02:34:36;7.80;;;7.70;;
595;SDS011;19946;49.306;11.350;2022-09-09T02:37:44;6.80;;;6.70;;
595;SDS011;19946;49.306;11.350;2022-09-09T02:40:46;7.23;;;7.13;;
595;SDS011;19946;49.306;11.350;2022-09-09T02:43:47;7.20;;;7.10;;
595;SDS011;19946;49.306;11.350;2022-09-09T02:47:02;7.40;;;7.30;;
595;SDS011;19946;49.306;11.350;2022-09-09T02:50:29;7.27;;;7.17;;
595;SDS011;19946;49.306;11.350;2022-09-09T02:53:39;7.50;;;7.40;;
595;SDS011;19946;49.306;11.350;2022-09-09T02:56:51;7.40;;;7.30;;
595;SDS011;19946;49.306;11.350;2022-09-09T02:59:57;7.40;;;7.30;;
595;SDS011;19946;49.306;11.350;2022-09-09T03:02:58;6.33;;;6.23;;
595;SDS011;19946;49.306;11.350;2022-09-09T03:05:59;6.40;;;6.30;;
595;SDS011;19946;49.306;11.350;2022-09-09T03:09:01;6.70;;;6.60;;
595;SDS011;19946;49.306;11.350;2022-09-09T03:12:03;6.70;;;6.60;;
595;SDS011;19946;49.306;11.350;2022-09-09T03:15:06;6.70;;;6.60;;
595;SDS011;19946;49.306;11.350;2022-09-09T03:18:08;6.80;;;6.70;;
595;SDS011;19946;49.306;11.350;2022-09-09T03:21:08;7.30;;;7.20;;
595;SDS011;19946;49.306;11.350;2022-09-09T03:24:11;7.90;;;7.80;;
595;SDS011;19946;49.306;11.350;2022-09-09T03:27:12;8.27;;;8.17;;
595;SDS011;19946;49.306;11.350;2022-09-09T03:30:14;8.00;;;7.90;;
595;SDS011;19946;49.306;11.350;2022-09-09T03:33:16;8.10;;;8.00;;
595;SDS011;19946;49.306;11.350;2022-09-09T03:36:19;8.50;;;8.40;;
595;SDS011;19946;49.306;11.350;2022-09-09T03:39:20;7.80;;;7.70;;
595;SDS011;19946;49.306;11.350;2022-09-09T03:42:20;8.40;;;8.30;;
595;SDS011;19946;49.306;11.350;2022-09-09T03:45:25;8.57;;;8.47;;
595;SDS011;19946;49.306;11.350;2022-09-09T03:48:25;7.60;;;7.50;;
595;SDS011;19946;49.306;11.350;2022-09-09T03:51:28;8.50;;;8.40;;
595;SDS011;19946;49.306;11.350;2022-09-09T03:54:28;8.10;;;8.00;;
595;SDS011;19946;49.306;11.350;2022-09-09T03:57:30;7.40;;;7.30;;
595;SDS011;19946;49.306;11.350;2022-09-09T04:00:31;7.20;;;7.10;;
595;SDS011;19946;49.306;11.350;2022-09-09T04:03:32;7.00;;;6.90;;
595;SDS011;19946;49.306;11.350;2022-09-09T04:06:32;7.00;;;6.90;;
595;SDS011;19946;49.306;11.350;2022-09-09T04:09:33;7.60;;;7.50;;
595;SDS011;19946;49.306;11.350;2022-09-09T04:12:33;8.10;;;8.00;;
595;SDS011;19946;49.306;11.350;2022-09-09T04:15:35;8.43;;;8.33;;
595;SDS011;19946;49.306;11.350;2022-09-09T04:18:36;7.20;;;7.10;;
595;SDS011;19946;49.306;11.350;2022-09-09T04:21:37;7.50;;;7.40;;
595;SDS011;19946;49.306;11.350;2022-09-09T04:24:37;6.90;;;6.80;;
595;SDS011;19946;49.306;11.350;2022-09-09T04:27:38;6.80;;;6.70;;
595;SDS011;19946;49.306;11.350;2022-09-09T04:30:40;7.60;;;7.50;;
595;SDS011;19946;49.306;11.350;2022-09-09T04:33:41;8.40;;;8.30;;
595;SDS011;19946;49.306;11.350;2022-09-09T04:36:43;8.40;;;8.30;;
595;SDS011;19946;49.306;11.350;2022-09-09T04:39:44;8.77;;;8.67;;
595;SDS011;19946;49.306;11.350;2022-09-09T04:42:45;9.20;;;9.00;;
595;SDS011;19946;49.306;11.350;2022-09-09T04:45:48;9.80;;;9.60;;
595;SDS011;19946;49.306;11.350;2022-09-09T04:48:52;9.20;;;9.00;;
595;SDS011;19946;49.306;11.350;2022-09-09T04:51:54;9.10;;;8.90;;
595;SDS011;19946;49.306;11.350;2022-09-09T04:54:56;9.77;;;9.57;;
595;SDS011;19946;49.306;11.350;2022-09-09T04:57:57;10.73;;;10.53;;
595;SDS011;19946;49.306;11.350;2022-09-09T05:01:31;9.70;;;9.50;;
595;SDS011;19946;49.306;11.350;2022-09-09T05:04:26;10.60;;;10.40;;
595;SDS011;19946;49.306;11.350;2022-09-09T05:07:27;10.10;;;9.90;;
595;SDS011;19946;49.306;11.350;2022-09-09T05:10:27;10.50;;;10.30;;
595;SDS011;19946;49.306;11.350;2022-09-09T05:13:28;10.47;;;10.27;;
595;SDS011;19946;49.306;11.350;2022-09-09T05:16:29;10.10;;;9.90;;
595;SDS011;19946;49.306;11.350;2022-09-09T05:19:30;10.50;;;10.30;;
595;SDS011;19946;49.306;11.350;2022-09-09T05:22:31;9.70;;;9.50;;
595;SDS011;19946;49.306;11.350;2022-09-09T05:25:31;10.20;;;10.00;;
595;SDS011;19946;49.306;11.350;2022-09-09T05:28:33;10.20;;;10.00;;
595;SDS011;19946;49.306;11.350;2022-09-09T05:31:35;9.27;;;9.07;;
595;SDS011;19946;49.306;11.350;2022-09-09T05:34:39;9.77;;;9.57;;
595;SDS011;19946;49.306;11.350;2022-09-09T05:37:40;9.73;;;9.53;;
595;SDS011;19946;49.306;11.350;2022-09-09T05:40:46;9.30;;;9.10;;
595;SDS011;19946;49.306;11.350;2022-09-09T05:43:48;9.40;;;9.20;;
595;SDS011;19946;49.306;11.350;2022-09-09T05:46:49;9.27;;;9.07;;
595;SDS011;19946;49.306;11.350;2022-09-09T05:49:50;10.23;;;10.03;;
595;SDS011;19946;49.306;11.350;2022-09-09T05:52:50;10.53;;;10.33;;
595;SDS011;19946;49.306;11.350;2022-09-09T05:56:04;11.90;;;11.60;;
595;SDS011;19946;49.306;11.350;2022-09-09T05:59:07;12.63;;;12.33;;
595;SDS011;19946;49.306;11.350;2022-09-09T06:02:08;12.87;;;12.57;;
595;SDS011;19946;49.306;11.350;2022-09-09T06:05:11;13.07;;;12.77;;
595;SDS011;19946;49.306;11.350;2022-09-09T06:08:11;12.80;;;12.50;;
595;SDS011;19946;49.306;11.350;2022-09-09T06:11:16;11.93;;;11.63;;
595;SDS011;19946;49.306;11.350;2022-09-09T06:14:18;11.90;;;11.60;;
595;SDS011;19946;49.306;11.350;2022-09-09T06:17:21;12.50;;;12.20;;
595;SDS011;19946;49.306;11.350;2022-09-09T06:20:24;13.50;;;13.10;;
595;SDS011;19946;49.306;11.350;2022-09-09T06:23:25;12.60;;;12.30;;
595;SDS011;19946;49.306;11.350;2022-09-09T06:26:30;13.37;;;13.00;;
595;SDS011;19946;49.306;11.350;2022-09-09T06:29:32;12.27;;;11.97;;
595;SDS011;19946;49.306;11.350;2022-09-09T06:32:32;12.80;;;12.50;;
595;SDS011;19946;49.306;11.350;2022-09-09T06:35:37;13.80;;;13.40;;
595;SDS011;19946;49.306;11.350;2022-09-09T06:38:38;13.33;;;12.93;;
595;SDS011;19946;49.306;11.350;2022-09-09T06:41:39;12.70;;;12.40;;
595;SDS011;19946;49.306;11.350;2022-09-09T06:44:47;16.60;;;16.10;;
595;SDS011;19946;49.306;11.350;2022-09-09T06:47:57;11.90;;;11.60;;
595;SDS011;19946;49.306;11.350;2022-09-09T06:54:06;12.50;;;12.20;;
595;SDS011;19946;49.306;11.350;2022-09-09T06:57:07;13.00;;;12.70;;
595;SDS011;19946;49.306;11.350;2022-09-09T07:00:08;13.10;;;12.80;;
595;SDS011;19946;49.306;11.350;2022-09-09T07:03:10;13.80;;;13.40;;
595;SDS011;19946;49.306;11.350;2022-09-09T07:06:13;15.20;;;14.70;;
595;SDS011;19946;49.306;11.350;2022-09-09T07:09:17;15.53;;;15.03;;
595;SDS011;19946;49.306;11.350;2022-09-09T07:12:21;14.23;;;13.83;;
595;SDS011;19946;49.306;11.350;2022-09-09T07:15:29;14.73;;;14.30;;
595;SDS011;19946;49.306;11.350;2022-09-09T07:18:30;15.20;;;14.70;;
595;SDS011;19946;49.306;11.350;2022-09-09T07:21:31;15.70;;;15.20;;
595;SDS011;19946;49.306;11.350;2022-09-09T07:24:33;15.70;;;15.20;;
595;SDS011;19946;49.306;11.350;2022-09-09T07:27:33;15.10;;;14.60;;
595;SDS011;19946;49.306;11.350;2022-09-09T07:30:34;15.60;;;15.10;;
595;SDS011;19946;49.306;11.350;2022-09-09T07:33:35;14.90;;;14.40;;
595;SDS011;19946;49.306;11.350;2022-09-09T07:36:37;15.00;;;14.50;;
595;SDS011;19946;49.306;11.350;2022-09-09T07:39:41;14.30;;;13.90;;
595;SDS011;19946;49.306;11.350;2022-09-09T07:42:42;13.50;;;13.10;;
595;SDS011;19946;49.306;11.350;2022-09-09T07:45:42;13.83;;;13.43;;
595;SDS011;19946;49.306;11.350;2022-09-09T07:48:51;13.80;;;13.40;;
595;SDS011;19946;49.306;11.350;2022-09-09T07:51:59;14.50;;;14.10;;
595;SDS011;19946;49.306;11.350;2022-09-09T07:55:00;14.53;;;14.13;;
595;SDS011;19946;49.306;11.350;2022-09-09T07:58:02;15.10;;;14.63;;
595;SDS011;19946;49.306;11.350;2022-09-09T08:01:10;15.60;;;15.10;;
595;SDS011;19946;49.306;11.350;2022-09-09T08:04:14;14.60;;;14.20;;
595;SDS011;19946;49.306;11.350;2022-09-09T08:07:17;14.30;;;13.90;;
595;SDS011;19946;49.306;11.350;2022-09-09T08:10:24;14.10;;;13.70;;
595;SDS011;19946;49.306;11.350;2022-09-09T08:13:27;15.40;;;14.90;;
595;SDS011;19946;49.306;11.350;2022-09-09T08:16:32;16.40;;;15.90;;
595;SDS011;19946;49.306;11.350;2022-09-09T08:19:34;16.70;;;16.10;;
595;SDS011;19946;49.306;11.350;2022-09-09T08:22:36;18.20;;;17.50;;
595;SDS011;19946;49.306;11.350;2022-09-09T08:25:38;17.50;;;16.80;;
595;SDS011;19946;49.306;11.350;2022-09-09T08:28:39;17.00;;;16.40;;
595;SDS011;19946;49.306;11.350;2022-09-09T08:31:41;18.50;;;17.60;;
595;SDS011;19946;49.306;11.350;2022-09-09T08:34:44;17.53;;;16.70;;
595;SDS011;19946;49.306;11.350;2022-09-09T08:37:53;19.23;;;18.13;;
595;SDS011;19946;49.306;11.350;2022-09-09T08:40:55;19.93;;;18.73;;
595;SDS011;19946;49.306;11.350;2022-09-09T08:50:39;17.30;;;16.70;;
595;SDS011;19946;49.306;11.350;2022-09-09T08:53:51;18.37;;;17.37;;
595;SDS011;19946;49.306;11.350;2022-09-09T08:56:53;18.57;;;17.47;;
595;SDS011;19946;49.306;11.350;2022-09-09T08:59:54;17.00;;;16.30;;
595;SDS011;19946;49.306;11.350;2022-09-09T09:03:09;18.87;;;17.23;;
595;SDS011;19946;49.306;11.350;2022-09-09T09:10:05;20.30;;;18.10;;
595;SDS011;19946;49.306;11.350;2022-09-09T09:16:48;23.50;;;21.87;;
595;SDS011;19946;49.306;11.350;2022-09-09T09:19:54;22.03;;;19.73;;
595;SDS011;19946;49.306;11.350;2022-09-09T09:22:56;21.17;;;19.33;;
595;SDS011;19946;49.306;11.350;2022-09-09T09:26:05;18.73;;;18.03;;
595;SDS011;19946;49.306;11.350;2022-09-09T09:29:16;18.70;;;18.00;;
595;SDS011;19946;49.306;11.350;2022-09-09T09:32:20;19.93;;;19.13;;
595;SDS011;19946;49.306;11.350;2022-09-09T09:35:23;20.00;;;19.20;;
595;SDS011;19946;49.306;11.350;2022-09-09T09:38:25;20.33;;;19.53;;
595;SDS011;19946;49.306;11.350;2022-09-09T09:41:34;20.83;;;20.00;;
595;SDS011;19946;49.306;11.350;2022-09-09T09:44:39;19.17;;;18.40;;
595;SDS011;19946;49.306;11.350;2022-09-09T09:47:45;21.00;;;20.00;;
595;SDS011;19946;49.306;11.350;2022-09-09T09:50:55;18.50;;;17.80;;
595;SDS011;19946;49.306;11.350;2022-09-09T09:54:23;19.27;;;18.47;;
595;SDS011;19946;49.306;11.350;2022-09-09T09:57:30;18.30;;;17.60;;
595;SDS011;19946;49.306;11.350;2022-09-09T10:00:33;18.20;;;17.50;;
595;SDS011;19946;49.306;11.350;2022-09-09T10:03:49;19.27;;;18.50;;
595;SDS011;19946;49.306;11.350;2022-09-09T10:06:52;19.10;;;18.40;;
595;SDS011;19946;49.306;11.350;2022-09-09T10:09:53;19.20;;;18.50;;
595;SDS011;19946;49.306;11.350;2022-09-09T10:13:16;19.07;;;18.37;;
595;SDS011;19946;49.306;11.350;2022-09-09T10:16:45;19.33;;;18.60;;
595;SDS011;19946;49.306;11.350;2022-09-09T10:20:24;19.77;;;18.97;;
595;SDS011;19946;49.306;11.350;2022-09-09T10:30:41;20.10;;;19.30;;
595;SDS011;19946;49.306;11.350;2022-09-09T10:37:40;19.47;;;18.77;;
595;SDS011;19946;49.306;11.350;2022-09-09T10:40:41;18.80;;;18.10;;
595;SDS011;19946;49.306;11.350;2022-09-09T10:54:22;17.90;;;17.30;;
595;SDS011;19946;49.306;11.350;2022-09-09T10:57:34;17.90;;;17.30;;
595;SDS011;19946;49.306;11.350;2022-09-09T11:00:42;17.80;;;17.20;;
595;SDS011;19946;49.306;11.350;2022-09-09T11:03:48;17.50;;;16.90;;
595;SDS011;19946;49.306;11.350;2022-09-09T11:06:55;18.73;;;18.03;;
595;SDS011;19946;49.306;11.350;2022-09-09T11:09:58;18.00;;;17.40;;
595;SDS011;19946;49.306;11.350;2022-09-09T11:13:03;17.30;;;16.70;;
595;SDS011;19946;49.306;11.350;2022-09-09T11:19:37;17.67;;;17.07;;
595;SDS011;19946;49.306;11.350;2022-09-09T11:22:51;17.00;;;16.40;;
595;SDS011;19946;49.306;11.350;2022-09-09T11:26:01;17.00;;;16.50;;
595;SDS011;19946;49.306;11.350;2022-09-09T11:43:18;16.50;;;16.00;;
595;SDS011;19946;49.306;11.350;2022-09-09T11:46:34;16.10;;;15.60;;
595;SDS011;19946;49.306;11.350;2022-09-09T11:52:40;14.93;;;14.53;;
595;SDS011;19946;49.306;11.350;2022-09-09T11:55:45;14.20;;;13.80;;
595;SDS011;19946;49.306;11.350;2022-09-09T11:59:05;14.60;;;14.20;;
595;SDS011;19946;49.306;11.350;2022-09-09T12:02:23;14.50;;;14.10;;
595;SDS011;19946;49.306;11.350;2022-09-09T12:05:42;15.67;;;15.17;;
595;SDS011;19946;49.306;11.350;2022-09-09T12:08:48;15.27;;;14.87;;
595;SDS011;19946;49.306;11.350;2022-09-09T12:15:32;16.00;;;15.50;;
595;SDS011;19946;49.306;11.350;2022-09-09T12:18:37;15.90;;;15.40;;
595;SDS011;19946;49.306;11.350;2022-09-09T12:38:13;15.60;;;15.20;;
595;SDS011;19946;49.306;11.350;2022-09-09T12:41:23;15.47;;;15.07;;
595;SDS011;19946;49.306;11.350;2022-09-09T12:44:25;14.83;;;14.43;;
595;SDS011;19946;49.306;11.350;2022-09-09T12:47:40;15.90;;;15.43;;
595;SDS011;19946;49.306;11.350;2022-09-09T12:50:46;16.20;;;15.70;;
595;SDS011;19946;49.306;11.350;2022-09-09T12:53:49;16.40;;;15.90;;
595;SDS011;19946;49.306;11.350;2022-09-09T12:56:50;15.83;;;15.43;;
595;SDS011;19946;49.306;11.350;2022-09-09T12:59:50;15.10;;;14.70;;
595;SDS011;19946;49.306;11.350;2022-09-09T13:06:10;14.40;;;14.00;;
595;SDS011;19946;49.306;11.350;2022-09-09T13:09:12;16.00;;;15.60;;
595;SDS011;19946;49.306;11.350;2022-09-09T13:12:21;15.53;;;15.13;;
595;SDS011;19946;49.306;11.350;2022-09-09T13:15:23;14.90;;;14.50;;
595;SDS011;19946;49.306;11.350;2022-09-09T13:18:27;15.50;;;15.10;;
595;SDS011;19946;49.306;11.350;2022-09-09T13:21:33;15.03;;;14.63;;
595;SDS011;19946;49.306;11.350;2022-09-09T13:24:34;15.73;;;15.33;;
595;SDS011;19946;49.306;11.350;2022-09-09T13:27:36;15.60;;;15.20;;
595;SDS011;19946;49.306;11.350;2022-09-09T13:30:38;15.00;;;14.60;;
595;SDS011;19946;49.306;11.350;2022-09-09T13:33:40;15.27;;;14.87;;
595;SDS011;19946;49.306;11.350;2022-09-09T13:36:41;15.10;;;14.70;;
595;SDS011;19946;49.306;11.350;2022-09-09T13:39:50;14.80;;;14.40;;
595;SDS011;19946;49.306;11.350;2022-09-09T13:42:55;15.30;;;14.90;;
595;SDS011;19946;49.306;11.350;2022-09-09T13:45:57;15.40;;;15.00;;
595;SDS011;19946;49.306;11.350;2022-09-09T13:49:00;14.90;;;14.50;;
595;SDS011;19946;49.306;11.350;2022-09-09T13:52:04;14.40;;;14.00;;
595;SDS011;19946;49.306;11.350;2022-09-09T13:55:13;13.90;;;13.60;;
595;SDS011;19946;49.306;11.350;2022-09-09T13:58:14;14.40;;;14.00;;
595;SDS011;19946;49.306;11.350;2022-09-09T14:01:16;14.50;;;14.10;;
595;SDS011;19946;49.306;11.350;2022-09-09T14:04:17;14.43;;;14.03;;
595;SDS011;19946;49.306;11.350;2022-09-09T14:07:18;14.53;;;14.13;;
595;SDS011;19946;49.306;11.350;2022-09-09T14:10:19;13.60;;;13.30;;
595;SDS011;19946;49.306;11.350;2022-09-09T14:13:19;12.57;;;12.27;;
595;SDS011;19946;49.306;11.350;2022-09-09T14:16:21;9.40;;;9.20;;
595;SDS011;19946;49.306;11.350;2022-09-09T14:19:21;8.50;;;8.40;;
595;SDS011;19946;49.306;11.350;2022-09-09T14:22:22;7.63;;;7.53;;
595;SDS011;19946;49.306;11.350;2022-09-09T14:25:24;10.13;;;9.93;;
595;SDS011;19946;49.306;11.350;2022-09-09T14:28:24;7.47;;;7.37;;
595;SDS011;19946;49.306;11.350;2022-09-09T14:31:25;8.43;;;8.33;;
595;SDS011;19946;49.306;11.350;2022-09-09T14:34:26;9.80;;;9.60;;
595;SDS011;19946;49.306;11.350;2022-09-09T14:37:27;9.97;;;9.77;;
595;SDS011;19946;49.306;11.350;2022-09-09T14:40:27;10.07;;;9.87;;
595;SDS011;19946;49.306;11.350;2022-09-09T14:43:28;10.67;;;10.47;;
595;SDS011;19946;49.306;11.350;2022-09-09T14:46:29;10.10;;;9.90;;
595;SDS011;19946;49.306;11.350;2022-09-09T14:49:33;9.90;;;9.70;;
595;SDS011;19946;49.306;11.350;2022-09-09T14:52:34;9.80;;;9.60;;
595;SDS011;19946;49.306;11.350;2022-09-09T14:55:35;9.60;;;9.40;;
595;SDS011;19946;49.306;11.350;2022-09-09T14:58:36;9.10;;;9.00;;
595;SDS011;19946;49.306;11.350;2022-09-09T15:01:38;8.20;;;8.10;;
595;SDS011;19946;49.306;11.350;2022-09-09T15:04:38;8.50;;;8.40;;
595;SDS011;19946;49.306;11.350;2022-09-09T15:07:38;9.03;;;8.93;;
595;SDS011;19946;49.306;11.350;2022-09-09T15:10:38;9.00;;;8.90;;
595;SDS011;19946;49.306;11.350;2022-09-09T15:13:40;9.23;;;9.07;;
595;SDS011;19946;49.306;11.350;2022-09-09T15:16:42;8.80;;;8.70;;
595;SDS011;19946;49.306;11.350;2022-09-09T15:19:42;9.03;;;8.93;;
595;SDS011;19946;49.306;11.350;2022-09-09T15:22:43;10.20;;;10.00;;
595;SDS011;19946;49.306;11.350;2022-09-09T15:25:52;10.30;;;10.10;;
595;SDS011;19946;49.306;11.350;2022-09-09T15:28:54;11.10;;;10.90;;
595;SDS011;19946;49.306;11.350;2022-09-09T15:31:54;11.73;;;11.53;;
595;SDS011;19946;49.306;11.350;2022-09-09T15:34:55;11.10;;;10.90;;
595;SDS011;19946;49.306;11.350;2022-09-09T15:38:01;11.40;;;11.20;;
595;SDS011;19946;49.306;11.350;2022-09-09T15:41:03;12.90;;;12.60;;
595;SDS011;19946;49.306;11.350;2022-09-09T15:44:03;12.70;;;12.40;;
595;SDS011;19946;49.306;11.350;2022-09-09T15:47:04;12.20;;;11.90;;
595;SDS011;19946;49.306;11.350;2022-09-09T15:50:04;13.10;;;12.80;;
595;SDS011;19946;49.306;11.350;2022-09-09T15:53:04;12.77;;;12.47;;
595;SDS011;19946;49.306;11.350;2022-09-09T15:56:06;11.10;;;10.90;;
595;SDS011;19946;49.306;11.350;2022-09-09T15:59:07;11.70;;;11.50;;
595;SDS011;19946;49.306;11.350;2022-09-09T16:02:08;13.80;;;13.50;;
595;SDS011;19946;49.306;11.350;2022-09-09T16:05:13;13.40;;;13.10;;
595;SDS011;19946;49.306;11.350;2022-09-09T16:08:16;14.50;;;14.10;;
595;SDS011;19946;49.306;11.350;2022-09-09T16:11:19;15.10;;;14.70;;
595;SDS011;19946;49.306;11.350;2022-09-09T16:14:21;15.10;;;14.70;;
595;SDS011;19946;49.306;11.350;2022-09-09T16:17:22;15.00;;;14.60;;
595;SDS011;19946;49.306;11.350;2022-09-09T16:20:22;15.30;;;14.90;;
595;SDS011;19946;49.306;11.350;2022-09-09T16:23:22;14.80;;;14.40;;
595;SDS011;19946;49.306;11.350;2022-09-09T16:26:24;15.80;;;15.40;;
595;SDS011;19946;49.306;11.350;2022-09-09T16:29:25;15.60;;;15.20;;
595;SDS011;19946;49.306;11.350;2022-09-09T16:32:27;14.60;;;14.20;;
595;SDS011;19946;49.306;11.350;2022-09-09T16:35:28;15.87;;;15.30;;
595;SDS011;19946;49.306;11.350;2022-09-09T16:38:29;16.13;;;15.53;;
595;SDS011;19946;49.306;11.350;2022-09-09T16:41:30;16.47;;;15.27;;
595;SDS011;19946;49.306;11.350;2022-09-09T16:44:31;15.20;;;14.80;;
595;SDS011;19946;49.306;11.350;2022-09-09T16:47:31;17.83;;;16.10;;
595;SDS011;19946;49.306;11.350;2022-09-09T16:50:32;14.73;;;13.70;;
595;SDS011;19946;49.306;11.350;2022-09-09T16:53:32;17.17;;;15.53;;
595;SDS011;19946;49.306;11.350;2022-09-09T16:56:34;17.53;;;15.77;;
595;SDS011;19946;49.306;11.350;2022-09-09T16:59:41;15.90;;;14.30;;
595;SDS011;19946;49.306;11.350;2022-09-09T17:02:42;13.30;;;12.50;;
595;SDS011;19946;49.306;11.350;2022-09-09T17:05:43;13.77;;;12.67;;
595;SDS011;19946;49.306;11.350;2022-09-09T17:08:44;16.77;;;14.03;;
595;SDS011;19946;49.306;11.350;2022-09-09T17:11:45;14.40;;;12.60;;
595;SDS011;19946;49.306;11.350;2022-09-09T17:14:47;14.70;;;12.20;;
595;SDS011;19946;49.306;11.350;2022-09-09T17:17:47;14.90;;;12.37;;
595;SDS011;19946;49.306;11.350;2022-09-09T17:20:49;15.17;;;13.60;;
595;SDS011;19946;49.306;11.350;2022-09-09T17:23:50;14.30;;;12.87;;
595;SDS011;19946;49.306;11.350;2022-09-09T17:26:50;14.67;;;12.03;;
595;SDS011;19946;49.306;11.350;2022-09-09T17:29:51;11.03;;;10.13;;
595;SDS011;19946;49.306;11.350;2022-09-09T17:32:51;10.90;;;9.90;;
595;SDS011;19946;49.306;11.350;2022-09-09T17:35:51;10.23;;;9.37;;
595;SDS011;19946;49.306;11.350;2022-09-09T17:38:52;10.97;;;10.00;;
595;SDS011;19946;49.306;11.350;2022-09-09T17:41:53;10.20;;;9.50;;
595;SDS011;19946;49.306;11.350;2022-09-09T17:44:54;10.07;;;9.10;;
595;SDS011;19946;49.306;11.350;2022-09-09T17:47:54;8.40;;;8.00;;
595;SDS011;19946;49.306;11.350;2022-09-09T17:50:58;9.20;;;8.60;;
595;SDS011;19946;49.306;11.350;2022-09-09T17:54:00;9.93;;;8.93;;
595;SDS011;19946;49.306;11.350;2022-09-09T17:57:03;10.27;;;9.40;;
595;SDS011;19946;49.306;11.350;2022-09-09T18:00:04;9.83;;;9.10;;
595;SDS011;19946;49.306;11.350;2022-09-09T18:03:12;9.07;;;8.27;;
595;SDS011;19946;49.306;11.350;2022-09-09T18:06:13;9.93;;;9.10;;
595;SDS011;19946;49.306;11.350;2022-09-09T18:09:17;9.20;;;8.70;;
595;SDS011;19946;49.306;11.350;2022-09-09T18:12:23;10.90;;;9.90;;
595;SDS011;19946;49.306;11.350;2022-09-09T18:15:24;10.20;;;9.33;;
595;SDS011;19946;49.306;11.350;2022-09-09T18:18:24;9.37;;;8.80;;
595;SDS011;19946;49.306;11.350;2022-09-09T18:21:25;10.63;;;9.53;;
595;SDS011;19946;49.306;11.350;2022-09-09T18:24:26;13.13;;;9.97;;
595;SDS011;19946;49.306;11.350;2022-09-09T18:27:27;10.37;;;9.67;;
595;SDS011;19946;49.306;11.350;2022-09-09T18:30:28;13.30;;;9.63;;
595;SDS011;19946;49.306;11.350;2022-09-09T18:33:30;11.53;;;9.50;;
595;SDS011;19946;49.306;11.350;2022-09-09T18:36:39;15.27;;;10.17;;
595;SDS011;19946;49.306;11.350;2022-09-09T18:39:42;10.23;;;9.40;;
595;SDS011;19946;49.306;11.350;2022-09-09T18:42:42;9.80;;;9.60;;
595;SDS011;19946;49.306;11.350;2022-09-09T18:45:46;10.00;;;9.80;;
595;SDS011;19946;49.306;11.350;2022-09-09T18:48:46;9.00;;;8.90;;
595;SDS011;19946;49.306;11.350;2022-09-09T18:51:49;8.40;;;8.30;;
595;SDS011;19946;49.306;11.350;2022-09-09T18:54:50;8.50;;;8.40;;
595;SDS011;19946;49.306;11.350;2022-09-09T18:57:50;9.00;;;8.90;;
595;SDS011;19946;49.306;11.350;2022-09-09T19:00:50;10.20;;;10.00;;
595;SDS011;19946;49.306;11.350;2022-09-09T19:03:51;10.50;;;10.30;;
595;SDS011;19946;49.306;11.350;2022-09-09T19:06:53;9.10;;;9.00;;
595;SDS011;19946;49.306;11.350;2022-09-09T19:09:56;9.17;;;9.07;;
595;SDS011;19946;49.306;11.350;2022-09-09T19:12:57;8.50;;;8.40;;
595;SDS011;19946;49.306;11.350;2022-09-09T19:16:17;7.93;;;7.83;;
595;SDS011;19946;49.306;11.350;2022-09-09T19:19:26;8.53;;;8.43;;
595;SDS011;19946;49.306;11.350;2022-09-09T19:22:28;9.00;;;8.90;;
595;SDS011;19946;49.306;11.350;2022-09-09T19:25:28;8.80;;;8.70;;
595;SDS011;19946;49.306;11.350;2022-09-09T19:28:31;10.40;;;10.20;;
595;SDS011;19946;49.306;11.350;2022-09-09T19:31:33;10.57;;;10.33;;
595;SDS011;19946;49.306;11.350;2022-09-09T19:34:33;10.50;;;10.20;;
595;SDS011;19946;49.306;11.350;2022-09-09T19:37:33;10.17;;;9.90;;
595;SDS011;19946;49.306;11.350;2022-09-09T19:40:34;9.70;;;9.50;;
595;SDS011;19946;49.306;11.350;2022-09-09T19:43:35;9.43;;;9.23;;
595;SDS011;19946;49.306;11.350;2022-09-09T19:46:36;9.90;;;9.60;;
595;SDS011;19946;49.306;11.350;2022-09-09T19:49:38;9.90;;;9.40;;
595;SDS011;19946;49.306;11.350;2022-09-09T19:52:40;9.63;;;9.33;;
595;SDS011;19946;49.306;11.350;2022-09-09T19:55:40;10.20;;;9.90;;
595;SDS011;19946;49.306;11.350;2022-09-09T19:58:40;10.40;;;10.10;;
595;SDS011;19946;49.306;11.350;2022-09-09T20:01:42;11.23;;;10.73;;
595;SDS011;19946;49.306;11.350;2022-09-09T20:04:45;11.20;;;10.80;;
595;SDS011;19946;49.306;11.350;2022-09-09T20:07:45;10.57;;;10.27;;
595;SDS011;19946;49.306;11.350;2022-09-09T20:10:50;10.83;;;10.53;;
595;SDS011;19946;49.306;11.350;2022-09-09T20:13:52;11.47;;;10.73;;
595;SDS011;19946;49.306;11.350;2022-09-09T20:16:53;12.97;;;11.80;;
595;SDS011;19946;49.306;11.350;2022-09-09T20:19:53;12.10;;;11.20;;